Terminal Aerodrome Forecast
Issued by NWS

Home | Current Version | Previous Version | Graphics & Text | Print | Product List | Glossary On
Versions: 1 2 3 4 5 6 7 8 9 10 11 12 13
000
FTUS45 KGGW 260037 RRA
TAFSDY
TAF
KSDY 260037Z 2601/2624 33010KT P6SM VCSH BKN050
     FM260300 31005KT P6SM VCSH SCT200
     FM260900 28005KT P6SM SCT150 PROB30 2610/2615 6SM -SHRA OVC040
     FM261700 28006KT P6SM BKN110 PROB30 2617/2618 6SM -SHRA OVC040
     FM261800 29009KT P6SM -SHRA BKN030
      AMD LTD TO CLD VIS AND WIND=

USA.gov is the U.S. government's official web portal to all federal, state and local government web resources and services.